Data at: 0900 UTC 09 Apr 2020

METAR for:KSLE (Salem Muni, OR, US)
Text:KSLE 090856Z AUTO 30003KT 10SM CLR 09/03 A3009 RMK AO2 SLP190 T00890028 58001
Temperature: 8.9°C ( 48°F)
Dewpoint: 2.8°C ( 37°F) [RH = 66%]
Pressure (altimeter):30.09 inches Hg (1019.0 mb) [Sea level pressure: 1019.0 mb]
Winds:from the WNW (300 degrees) at 3 MPH (3 knots; 1.5 m/s)
Visibility:10 or more sm (16+ km)
Ceiling:at least 12,000 feet AGL
Clouds:sky clear below 12,000 feet AGL
QC Flag:automated observation with no human augmentation

TAF for:KSLE (Salem Muni, OR, US) issued at 0520 UTC 09 Apr 2020
Text:KSLE 090520Z 0906/1006 35004KT P6SM SKC
Forecast period:0600 to 1800 UTC 09 April 2020
Forecast type:FROM: standard forecast or significant change
Winds:from the N (350 degrees) at 5 MPH (4 knots; 2.1 m/s)
Visibility:6 or more sm (10+ km)
Ceiling:at least 12,000 feet AGL
Clouds:clear skies
Text:FM091800 36009KT P6SM SKC
Forecast period:1800 UTC 09 April 2020 to 0600 UTC 10 April 2020
Forecast type:FROM: standard forecast or significant change
Winds:from the N (360 degrees) at 10 MPH (9 knots; 4.6 m/s)
Visibility:6 or more sm (10+ km)
Ceiling:at least 12,000 feet AGL
Clouds:clear skies